createdAt,value
2022-07-27T00:01:20.265Z,49.51
2022-07-27T00:03:46.800Z,49.63
2022-07-27T00:06:13.413Z,49.54
2022-07-27T00:08:39.782Z,49.55
2022-07-27T00:11:06.195Z,49.84
2022-07-27T00:13:32.562Z,50.02
2022-07-27T00:15:58.962Z,50.02
2022-07-27T00:18:25.347Z,50.08
2022-07-27T00:20:51.715Z,49.90
2022-07-27T00:23:18.075Z,49.98
2022-07-27T00:25:44.431Z,50.22
2022-07-27T00:28:10.778Z,50.25
2022-07-27T00:30:37.139Z,49.91
2022-07-27T00:33:05.507Z,50.29
2022-07-27T00:35:31.989Z,50.60
2022-07-27T00:37:58.547Z,50.60
2022-07-27T00:40:26.075Z,50.53
2022-07-27T00:42:52.429Z,50.54
2022-07-27T00:45:18.796Z,50.58
2022-07-27T00:47:45.207Z,50.34
2022-07-27T00:50:11.578Z,50.19
2022-07-27T00:52:37.998Z,50.09
2022-07-27T00:55:04.625Z,50.23
2022-07-27T00:57:30.978Z,50.24
2022-07-27T00:59:57.383Z,50.11
2022-07-27T01:02:23.799Z,50.12
2022-07-27T01:04:50.248Z,49.87
2022-07-27T01:07:20.299Z,50.00
2022-07-27T01:09:58.811Z,49.80
2022-07-27T01:12:26.736Z,49.63
2022-07-27T01:14:53.098Z,49.79
2022-07-27T01:17:19.529Z,49.60
2022-07-27T01:19:45.905Z,49.32
2022-07-27T01:22:12.258Z,49.51
2022-07-27T01:24:38.718Z,49.35
2022-07-27T01:27:05.130Z,49.03
2022-07-27T01:29:33.091Z,48.99
2022-07-27T01:32:00.917Z,48.81
2022-07-27T01:34:27.350Z,48.35
2022-07-27T01:36:53.719Z,47.89
2022-07-27T01:39:20.127Z,46.93
2022-07-27T01:41:46.518Z,46.46
2022-07-27T01:44:12.889Z,45.75
2022-07-27T01:46:39.317Z,45.60
2022-07-27T01:49:05.792Z,45.60
2022-07-27T01:51:32.227Z,45.82
2022-07-27T01:53:58.583Z,45.98
2022-07-27T01:56:24.951Z,46.25
2022-07-27T01:58:51.320Z,46.24
2022-07-27T02:01:17.735Z,46.47
2022-07-27T02:03:44.141Z,46.17
2022-07-27T02:06:10.497Z,46.48
2022-07-27T02:08:36.850Z,46.36
2022-07-27T02:11:21.807Z,46.28
2022-07-27T02:13:48.305Z,46.20
2022-07-27T02:16:17.172Z,46.29
2022-07-27T02:18:43.885Z,46.05
2022-07-27T02:21:10.809Z,45.85
2022-07-27T02:23:37.267Z,45.82
2022-07-27T02:26:04.007Z,45.58
2022-07-27T02:28:30.370Z,45.77
2022-07-27T02:30:56.730Z,45.51
2022-07-27T02:33:23.132Z,45.50
2022-07-27T02:35:50.411Z,45.26
2022-07-27T02:38:16.775Z,45.26
2022-07-27T02:40:43.153Z,45.21
2022-07-27T02:43:09.506Z,45.42
2022-07-27T02:45:35.879Z,45.53
2022-07-27T02:48:02.292Z,45.42
2022-07-27T02:50:28.659Z,45.47
2022-07-27T02:52:55.027Z,45.55
2022-07-27T02:55:21.399Z,45.38
2022-07-27T02:57:48.738Z,45.37
2022-07-27T03:00:15.797Z,45.52
2022-07-27T03:02:42.161Z,45.66
2022-07-27T03:05:08.944Z,45.31
2022-07-27T03:07:35.299Z,45.51
2022-07-27T03:10:01.680Z,45.48
2022-07-27T03:12:28.062Z,45.55
2022-07-27T03:14:54.438Z,45.47
2022-07-27T03:17:20.818Z,45.55
2022-07-27T03:19:49.653Z,45.54
2022-07-27T03:22:16.316Z,45.49
2022-07-27T03:24:42.705Z,45.50
2022-07-27T03:27:09.075Z,45.22
2022-07-27T03:29:35.438Z,45.52
2022-07-27T03:32:01.805Z,45.52
2022-07-27T03:34:28.191Z,45.50
2022-07-27T03:36:54.551Z,45.48
2022-07-27T03:39:20.918Z,45.47
2022-07-27T03:41:47.274Z,45.40
2022-07-27T03:44:13.629Z,45.38
2022-07-27T03:46:39.979Z,45.58
2022-07-27T03:49:13.989Z,45.57
2022-07-27T03:51:41.555Z,45.64
2022-07-27T03:54:07.975Z,45.54
2022-07-27T03:56:34.342Z,45.56
2022-07-27T03:59:00.702Z,45.94
2022-07-27T04:01:27.248Z,45.95
2022-07-27T04:03:53.675Z,46.11
2022-07-27T04:06:20.046Z,46.10
2022-07-27T04:08:46.415Z,46.12
2022-07-27T04:11:14.644Z,46.32
2022-07-27T04:13:44.042Z,46.33
2022-07-27T04:16:12.670Z,46.39
2022-07-27T04:18:39.103Z,46.37
2022-07-27T04:21:06.333Z,46.44
2022-07-27T04:23:38.009Z,45.69
2022-07-27T04:26:04.800Z,44.19
2022-07-27T04:28:32.528Z,44.65
2022-07-27T04:30:58.992Z,44.60
2022-07-27T04:33:25.401Z,45.00
2022-07-27T04:35:51.776Z,45.04
2022-07-27T04:38:18.139Z,45.48
2022-07-27T04:40:44.501Z,46.08
2022-07-27T04:43:10.866Z,45.02
2022-07-27T04:45:38.779Z,44.20
2022-07-27T04:48:08.279Z,44.17
2022-07-27T04:50:43.713Z,44.68
2022-07-27T04:53:10.440Z,44.58
2022-07-27T04:55:37.192Z,44.85
2022-07-27T04:58:03.546Z,47.00
2022-07-27T05:00:29.914Z,47.08
2022-07-27T05:02:56.279Z,47.19
2022-07-27T05:05:22.636Z,46.07
2022-07-27T05:07:48.977Z,45.66
2022-07-27T05:10:19.813Z,45.68
2022-07-27T05:12:46.816Z,45.45
2022-07-27T05:15:13.185Z,45.15
2022-07-27T05:17:39.820Z,45.12
2022-07-27T05:20:06.366Z,45.10
2022-07-27T05:22:36.244Z,45.05
2022-07-27T05:25:06.096Z,45.21
2022-07-27T05:27:32.587Z,44.89
2022-07-27T05:29:58.980Z,45.29
2022-07-27T05:32:25.675Z,45.34
2022-07-27T05:34:52.074Z,45.26
2022-07-27T05:37:18.483Z,45.18
2022-07-27T05:39:44.881Z,45.30
2022-07-27T05:42:11.301Z,45.24
2022-07-27T05:44:37.676Z,45.53
2022-07-27T05:47:06.038Z,45.52
2022-07-27T05:49:32.913Z,45.69
2022-07-27T05:51:59.287Z,45.76
2022-07-27T05:54:25.665Z,45.76
2022-07-27T05:56:52.309Z,45.77
2022-07-27T05:59:18.702Z,45.68
2022-07-27T06:01:45.061Z,45.58
2022-07-27T06:04:14.749Z,45.67
2022-07-27T06:07:00.420Z,45.51
2022-07-27T06:09:26.768Z,45.50
2022-07-27T06:11:53.126Z,45.73
2022-07-27T06:14:19.497Z,45.74
2022-07-27T06:16:45.944Z,45.77
2022-07-27T06:19:12.681Z,45.74
2022-07-27T06:21:39.360Z,46.23
2022-07-27T06:24:05.837Z,45.96
2022-07-27T06:26:32.182Z,46.05
2022-07-27T06:29:00.958Z,46.09
2022-07-27T06:31:28.396Z,45.79
2022-07-27T06:34:02.177Z,46.03
2022-07-27T06:36:28.604Z,46.02
2022-07-27T06:38:54.984Z,45.84
2022-07-27T06:41:21.391Z,45.42
2022-07-27T06:43:47.758Z,45.51
2022-07-27T06:46:14.362Z,45.34
2022-07-27T06:48:40.836Z,45.52
2022-07-27T06:51:07.401Z,45.44
2022-07-27T06:53:36.326Z,45.59
2022-07-27T06:56:08.318Z,45.71
2022-07-27T06:58:34.782Z,45.68
2022-07-27T07:01:02.361Z,45.44
2022-07-27T07:03:29.024Z,45.21
2022-07-27T07:05:55.426Z,45.36
2022-07-27T07:08:22.770Z,45.42
2022-07-27T07:10:49.344Z,45.46
2022-07-27T07:13:15.784Z,45.60
2022-07-27T07:15:42.280Z,46.09
2022-07-27T07:18:09.022Z,46.12
2022-07-27T07:20:35.487Z,46.19
2022-07-27T07:23:01.894Z,46.45
2022-07-27T07:25:28.358Z,46.36
2022-07-27T07:27:54.874Z,46.27
2022-07-27T07:30:21.332Z,46.37
2022-07-27T07:32:47.691Z,46.74
2022-07-27T07:35:14.059Z,46.31
2022-07-27T07:37:40.410Z,46.67
2022-07-27T07:42:54.258Z,46.38
2022-07-27T07:45:21.370Z,46.28
2022-07-27T07:47:47.735Z,46.74
2022-07-27T07:50:14.100Z,46.85
2022-07-27T07:52:40.631Z,44.75
2022-07-27T07:55:07.410Z,44.15
2022-07-27T07:57:33.773Z,43.82
2022-07-27T08:00:00.172Z,44.36
2022-07-27T08:02:26.557Z,44.25
2022-07-27T08:04:55.316Z,44.41
2022-07-27T08:07:21.907Z,44.51
2022-07-27T08:09:48.266Z,44.66
2022-07-27T08:12:14.615Z,44.81
2022-07-27T08:14:40.984Z,45.29
2022-07-27T08:17:07.350Z,45.36
2022-07-27T08:19:39.592Z,46.43
2022-07-27T08:22:06.541Z,45.86
2022-07-27T08:24:32.921Z,46.01
2022-07-27T08:26:59.285Z,46.05
2022-07-27T08:29:25.655Z,46.20
2022-07-27T08:32:03.440Z,46.46
2022-07-27T08:34:32.414Z,46.72
2022-07-27T08:36:58.800Z,46.79
2022-07-27T08:40:19.953Z,46.87
2022-07-27T08:42:11.564Z,47.03
2022-07-27T08:44:41.111Z,47.19
2022-07-27T08:47:10.662Z,47.26
2022-07-27T08:49:43.640Z,47.47
2022-07-27T08:52:11.030Z,47.62
2022-07-27T08:54:40.451Z,47.43
2022-07-27T08:57:07.470Z,47.16
2022-07-27T08:59:33.853Z,46.53
2022-07-27T09:02:03.300Z,45.96
2022-07-27T09:04:29.972Z,45.47
2022-07-27T09:06:56.344Z,45.32
2022-07-27T09:09:22.709Z,44.91
2022-07-27T09:12:05.246Z,45.13
2022-07-27T09:14:31.956Z,45.38
2022-07-27T09:19:52.581Z,44.93
2022-07-27T09:22:20.998Z,44.69
2022-07-27T09:25:07.745Z,44.75
2022-07-27T09:27:34.098Z,43.67
2022-07-27T09:30:01.554Z,43.82
2022-07-27T09:32:28.642Z,43.74
2022-07-27T09:34:55.005Z,43.98
2022-07-27T09:37:24.989Z,44.12
2022-07-27T09:39:52.382Z,44.10
2022-07-27T09:42:52.685Z,43.95
2022-07-27T09:45:25.952Z,44.03
2022-07-27T09:48:06.227Z,43.79
2022-07-27T09:50:35.751Z,43.82
2022-07-27T09:53:41.317Z,43.17
2022-07-27T09:56:17.595Z,42.96
2022-07-27T09:58:44.916Z,43.22
2022-07-27T10:01:12.962Z,42.98
2022-07-27T10:03:39.923Z,43.30
2022-07-27T10:06:06.280Z,43.59
2022-07-27T10:08:32.999Z,43.39
2022-07-27T10:10:59.403Z,43.36
2022-07-27T10:13:30.131Z,43.21
2022-07-27T10:15:56.530Z,43.32
2022-07-27T10:18:27.855Z,43.34
2022-07-27T10:20:55.069Z,43.62
2022-07-27T10:23:24.728Z,43.67
2022-07-27T10:25:54.736Z,43.70
2022-07-27T10:28:21.099Z,43.45
2022-07-27T10:30:53.793Z,43.78
2022-07-27T10:33:41.782Z,44.02
2022-07-27T10:36:16.785Z,44.69
2022-07-27T10:38:47.205Z,44.91
2022-07-27T10:41:23.043Z,44.82
2022-07-27T10:43:51.334Z,44.64
2022-07-27T10:46:20.852Z,45.07
2022-07-27T10:48:49.025Z,44.59
2022-07-27T10:51:16.430Z,44.64
2022-07-27T10:54:10.456Z,45.00
2022-07-27T10:56:45.172Z,45.31
2022-07-27T10:59:11.525Z,44.79
2022-07-27T11:01:46.463Z,44.91
2022-07-27T11:04:13.179Z,45.53
2022-07-27T11:07:09.917Z,45.59
2022-07-27T11:12:25.511Z,45.49
2022-07-27T11:14:52.295Z,46.10
2022-07-27T11:17:52.090Z,46.68
2022-07-27T11:20:09.225Z,47.16
2022-07-27T11:25:23.323Z,46.74
2022-07-27T11:27:49.727Z,45.85
2022-07-27T11:30:23.070Z,44.58
2022-07-27T11:32:49.483Z,44.39
2022-07-27T11:35:19.794Z,44.30
2022-07-27T11:37:57.611Z,44.32
2022-07-27T11:40:53.908Z,44.59
2022-07-27T11:43:10.332Z,44.73
2022-07-27T11:45:41.793Z,44.45
2022-07-27T11:48:10.543Z,44.47
2022-07-27T11:50:38.308Z,44.07
2022-07-27T11:53:06.474Z,44.10
2022-07-27T11:55:32.845Z,43.65
2022-07-27T11:58:03.193Z,43.91
2022-07-27T12:00:41.690Z,43.75
2022-07-27T12:03:08.447Z,43.78
2022-07-27T12:05:34.885Z,42.78
2022-07-27T12:08:01.323Z,42.88
2022-07-27T12:10:27.734Z,41.94
2022-07-27T12:12:54.082Z,42.58
2022-07-27T12:15:45.760Z,42.29
2022-07-27T12:18:06.793Z,43.01
2022-07-27T12:20:33.906Z,42.92
2022-07-27T12:23:03.502Z,42.71
2022-07-27T12:25:29.916Z,42.40
2022-07-27T12:27:57.136Z,42.89
2022-07-27T12:30:42.416Z,42.50
2022-07-27T12:33:24.329Z,42.71
2022-07-27T12:35:50.703Z,42.95
2022-07-27T12:38:17.059Z,42.61
2022-07-27T12:40:59.877Z,42.62
2022-07-27T12:43:27.120Z,42.80
2022-07-27T12:45:53.890Z,42.46
2022-07-27T12:48:21.739Z,43.03
2022-07-27T12:51:00.266Z,42.82
2022-07-27T12:53:26.631Z,43.24
2022-07-27T12:55:54.007Z,43.40
2022-07-27T12:58:20.368Z,43.04
2022-07-27T13:00:47.705Z,42.59
2022-07-27T13:03:14.294Z,42.60
2022-07-27T13:05:40.698Z,41.83
2022-07-27T13:08:07.535Z,41.93
2022-07-27T13:10:34.007Z,41.81
2022-07-27T13:13:00.370Z,42.34
2022-07-27T13:15:26.747Z,42.75
2022-07-27T13:17:53.128Z,41.07
2022-07-27T13:20:19.524Z,40.54
2022-07-27T13:22:45.942Z,40.35
2022-07-27T13:25:16.410Z,40.29
2022-07-27T13:27:43.819Z,40.37
2022-07-27T13:30:10.406Z,40.65
2022-07-27T13:32:37.167Z,41.01
2022-07-27T13:35:03.796Z,41.62
2022-07-27T13:37:30.162Z,41.86
2022-07-27T13:39:56.522Z,41.35
2022-07-27T13:42:22.939Z,41.39
2022-07-27T13:45:05.625Z,41.04
2022-07-27T13:47:34.791Z,41.39
2022-07-27T13:50:01.325Z,41.49
2022-07-27T13:52:28.235Z,41.88
2022-07-27T13:54:54.627Z,41.81
2022-07-27T13:57:20.986Z,41.71
2022-07-27T13:59:47.329Z,40.67
2022-07-27T14:02:13.797Z,41.21
2022-07-27T14:04:42.257Z,40.93
2022-07-27T14:07:10.020Z,40.87
2022-07-27T14:09:55.161Z,41.14
2022-07-27T14:12:21.649Z,40.92
2022-07-27T14:14:48.014Z,41.12
2022-07-27T14:17:14.383Z,41.34
2022-07-27T14:19:40.743Z,41.52
2022-07-27T14:22:10.571Z,41.39
2022-07-27T14:24:38.252Z,41.32
2022-07-27T14:27:04.837Z,41.04
2022-07-27T14:29:31.199Z,41.08
2022-07-27T14:31:57.662Z,41.05
2022-07-27T14:34:24.077Z,40.85
2022-07-27T14:36:50.449Z,40.69
2022-07-27T14:39:17.415Z,41.12
2022-07-27T14:41:44.505Z,40.87
2022-07-27T14:44:11.019Z,41.32
2022-07-27T14:46:37.462Z,40.96
2022-07-27T14:49:06.320Z,41.03
2022-07-27T14:51:33.200Z,41.12
2022-07-27T14:53:59.558Z,40.99
2022-07-27T14:56:25.947Z,41.07
2022-07-27T14:58:52.368Z,40.87
2022-07-27T15:01:18.802Z,40.39
2022-07-27T15:03:45.233Z,40.53
2022-07-27T15:06:11.654Z,40.89
2022-07-27T15:08:38.023Z,41.22
2022-07-27T15:11:04.436Z,41.35
2022-07-27T15:13:30.827Z,41.52
2022-07-27T15:15:58.056Z,42.11
2022-07-27T15:18:24.544Z,41.75
2022-07-27T15:20:50.939Z,42.04
2022-07-27T15:23:17.306Z,42.18
2022-07-27T15:25:43.675Z,42.35
2022-07-27T15:28:10.744Z,42.15
2022-07-27T15:30:38.829Z,42.04
2022-07-27T15:33:05.687Z,42.22
2022-07-27T15:35:32.087Z,42.27
2022-07-27T15:37:58.443Z,42.36
2022-07-27T15:40:36.879Z,42.33
2022-07-27T15:43:03.857Z,42.50
2022-07-27T15:45:30.246Z,42.54
2022-07-27T15:47:56.607Z,42.63
2022-07-27T15:50:22.968Z,42.60
2022-07-27T15:52:49.330Z,42.61
2022-07-27T15:55:16.595Z,43.04
2022-07-27T15:57:43.465Z,43.18
2022-07-27T16:00:10.104Z,42.89
2022-07-27T16:02:37.244Z,42.97
2022-07-27T16:05:03.621Z,42.93
2022-07-27T16:07:40.624Z,43.05
2022-07-27T16:10:08.395Z,43.07
2022-07-27T16:12:38.198Z,43.20
2022-07-27T16:15:04.978Z,43.40
2022-07-27T16:17:31.343Z,43.24
2022-07-27T16:19:57.702Z,43.26
2022-07-27T16:22:24.874Z,43.61
2022-07-27T16:24:51.325Z,43.44
2022-07-27T16:27:17.696Z,43.45
2022-07-27T16:29:44.050Z,43.51
2022-07-27T16:32:12.136Z,43.61
2022-07-27T16:34:38.723Z,43.47
2022-07-27T16:37:05.092Z,43.64
2022-07-27T16:39:33.300Z,43.98
2022-07-27T16:41:59.686Z,43.89
2022-07-27T16:44:26.088Z,43.85
2022-07-27T16:46:52.603Z,43.76
2022-07-27T16:49:19.335Z,44.07
2022-07-27T16:51:45.736Z,44.12
2022-07-27T16:54:12.959Z,43.96
2022-07-27T16:56:39.325Z,43.92
2022-07-27T16:59:05.673Z,43.96
2022-07-27T17:01:32.305Z,44.26
2022-07-27T17:03:58.768Z,44.37
2022-07-27T17:06:25.963Z,43.94
2022-07-27T17:08:52.348Z,44.29
2022-07-27T17:11:21.783Z,44.37
2022-07-27T17:13:48.889Z,44.13
2022-07-27T17:16:15.732Z,44.14
2022-07-27T17:18:42.177Z,44.23
2022-07-27T17:21:12.201Z,44.13
2022-07-27T17:23:39.772Z,44.60
2022-07-27T17:26:06.711Z,44.64
2022-07-27T17:28:36.439Z,44.63
2022-07-27T17:31:03.426Z,44.36
2022-07-27T17:33:30.055Z,44.52
2022-07-27T17:35:56.402Z,44.45
2022-07-27T17:38:22.780Z,44.93
2022-07-27T17:40:49.117Z,44.48
2022-07-27T17:43:15.538Z,44.45
2022-07-27T17:45:41.885Z,44.72
2022-07-27T17:48:08.234Z,44.85
2022-07-27T17:50:34.597Z,45.22
2022-07-27T17:53:01.653Z,45.08
2022-07-27T17:55:28.020Z,45.19
2022-07-27T17:57:55.283Z,45.34
2022-07-27T18:00:21.633Z,45.24
2022-07-27T18:02:47.995Z,45.41
2022-07-27T18:05:14.601Z,45.40
2022-07-27T18:07:40.995Z,45.14
2022-07-27T18:10:07.883Z,45.06
2022-07-27T18:12:35.096Z,44.96
2022-07-27T18:15:20.321Z,44.89
2022-07-27T18:17:46.678Z,44.94
2022-07-27T18:20:13.027Z,45.23
2022-07-27T18:22:39.401Z,45.23
2022-07-27T18:25:06.093Z,45.47
2022-07-27T18:27:34.498Z,45.93
2022-07-27T18:30:01.607Z,45.78
2022-07-27T18:32:27.971Z,45.48
2022-07-27T18:34:55.271Z,45.31
2022-07-27T18:37:21.654Z,45.83
2022-07-27T18:39:48.063Z,45.99
2022-07-27T18:42:14.416Z,46.01
2022-07-27T18:44:40.768Z,46.00
2022-07-27T18:47:07.137Z,46.00
2022-07-27T18:49:33.515Z,46.11
2022-07-27T18:51:59.927Z,45.95
2022-07-27T18:54:26.282Z,45.98
2022-07-27T18:56:52.650Z,45.42
2022-07-27T18:59:19.010Z,45.41
2022-07-27T19:01:45.519Z,44.44
2022-07-27T19:04:11.932Z,44.63
2022-07-27T19:06:42.229Z,43.12
2022-07-27T19:09:10.178Z,42.15
2022-07-27T19:11:36.770Z,42.22
2022-07-27T19:14:03.174Z,41.78
2022-07-27T19:16:29.623Z,42.34
2022-07-27T19:18:56.101Z,41.81
2022-07-27T19:21:22.547Z,41.90
2022-07-27T19:23:48.930Z,42.11
2022-07-27T19:26:15.295Z,42.61
2022-07-27T19:28:41.823Z,42.53
2022-07-27T19:31:22.774Z,41.90
2022-07-27T19:33:51.001Z,43.15
2022-07-27T19:36:17.409Z,43.03
2022-07-27T19:38:43.774Z,43.44
2022-07-27T19:41:10.140Z,43.35
2022-07-27T19:43:36.495Z,43.23
2022-07-27T19:46:02.923Z,43.56
2022-07-27T19:48:29.351Z,43.62
2022-07-27T19:51:02.134Z,43.74
2022-07-27T19:53:34.973Z,43.22
2022-07-27T19:56:01.347Z,42.83
2022-07-27T19:58:27.766Z,42.82
2022-07-27T20:00:55.624Z,43.05
2022-07-27T20:03:22.163Z,43.67
2022-07-27T20:05:48.529Z,43.52
2022-07-27T20:08:14.940Z,43.83
2022-07-27T20:10:41.318Z,43.80
2022-07-27T20:13:07.779Z,43.93
2022-07-27T20:15:34.155Z,44.14
2022-07-27T20:18:00.527Z,44.29
2022-07-27T20:20:26.943Z,44.26
2022-07-27T20:22:54.350Z,43.98
2022-07-27T20:25:20.944Z,44.49
2022-07-27T20:27:47.418Z,44.32
2022-07-27T20:30:16.147Z,44.49
2022-07-27T20:32:42.969Z,44.74
2022-07-27T20:35:09.323Z,44.48
2022-07-27T20:37:35.798Z,44.57
2022-07-27T20:40:02.182Z,44.67
2022-07-27T20:42:28.558Z,44.46
2022-07-27T20:44:54.912Z,44.95
2022-07-27T20:47:21.327Z,44.97
2022-07-27T20:49:47.688Z,44.65
2022-07-27T20:52:14.058Z,45.11
2022-07-27T20:54:40.492Z,45.21
2022-07-27T20:57:07.506Z,45.06
2022-07-27T20:59:33.871Z,45.25
2022-07-27T21:02:00.348Z,45.33
2022-07-27T21:04:26.786Z,45.22
2022-07-27T21:06:54.211Z,45.33
2022-07-27T21:09:21.174Z,45.60
2022-07-27T21:11:48.662Z,45.59
2022-07-27T21:14:15.017Z,45.74
2022-07-27T21:16:41.440Z,45.58
2022-07-27T21:19:08.527Z,45.60
2022-07-27T21:21:34.989Z,45.70
2022-07-27T21:24:17.423Z,45.94
2022-07-27T21:26:44.923Z,46.03
2022-07-27T21:29:11.761Z,45.76
2022-07-27T21:31:38.975Z,46.02
2022-07-27T21:34:05.898Z,45.64
2022-07-27T21:36:33.675Z,46.05
2022-07-27T21:39:00.084Z,46.15
2022-07-27T21:41:26.456Z,45.95
2022-07-27T21:43:52.906Z,46.36
2022-07-27T21:46:19.351Z,46.43
2022-07-27T21:48:45.954Z,46.35
2022-07-27T21:51:14.599Z,46.17
2022-07-27T21:53:40.945Z,46.45
2022-07-27T21:56:07.343Z,46.12
2022-07-27T21:58:33.702Z,46.32
2022-07-27T22:01:00.110Z,46.40
2022-07-27T22:03:26.513Z,46.66
2022-07-27T22:05:52.884Z,46.32
2022-07-27T22:08:20.584Z,46.52
2022-07-27T22:10:46.946Z,46.72
2022-07-27T22:13:13.295Z,46.38
2022-07-27T22:15:39.672Z,46.68
2022-07-27T22:18:06.035Z,46.95
2022-07-27T22:20:32.393Z,46.87
2022-07-27T22:22:59.004Z,46.87
2022-07-27T22:25:25.370Z,46.86
2022-07-27T22:27:51.728Z,46.77
2022-07-27T22:30:18.099Z,47.10
2022-07-27T22:32:44.660Z,46.76
2022-07-27T22:35:11.156Z,47.07
2022-07-27T22:37:37.526Z,46.99
2022-07-27T22:40:04.214Z,47.13
2022-07-27T22:42:30.603Z,47.12
2022-07-27T22:44:56.967Z,46.97
2022-07-27T22:47:23.373Z,47.10
2022-07-27T22:49:50.061Z,46.97
2022-07-27T22:52:16.419Z,46.96
2022-07-27T22:54:42.942Z,47.11
2022-07-27T22:57:09.301Z,47.36
2022-07-27T22:59:35.695Z,47.56
2022-07-27T23:02:02.144Z,47.63
2022-07-27T23:04:28.594Z,47.94
2022-07-27T23:06:55.104Z,47.54
2022-07-27T23:09:22.042Z,47.56
2022-07-27T23:11:48.400Z,47.34
2022-07-27T23:14:15.326Z,46.78
2022-07-27T23:16:42.142Z,46.55
2022-07-27T23:19:08.571Z,46.37
2022-07-27T23:21:34.957Z,45.74
2022-07-27T23:24:05.030Z,45.42
2022-07-27T23:26:31.535Z,45.40
2022-07-27T23:28:58.127Z,44.96
2022-07-27T23:31:26.025Z,44.91
2022-07-27T23:33:52.496Z,44.40
2022-07-27T23:36:18.868Z,44.28
2022-07-27T23:38:45.247Z,44.12
2022-07-27T23:41:11.605Z,43.85
2022-07-27T23:43:37.978Z,44.31
2022-07-27T23:46:06.493Z,44.70
2022-07-27T23:48:32.968Z,44.89
2022-07-27T23:50:59.358Z,45.04
2022-07-27T23:53:25.723Z,45.34
2022-07-27T23:55:52.337Z,45.38
2022-07-27T23:58:18.695Z,45.10
